Time;durP1;ratioP1;P1;durP2;ratioP2;P2;SDS_P1;SDS_P2;PMS_P1;PMS_P2;Temp;Humidity;BMP_temperature;BMP_pressure;BME280_temperature;BME280_humidity;BME280_pressure;Samples;Min_cycle;Max_cycle;Signal;HPM_P1;HPM_P2
2021/06/16 00:02:17;;;;;;;15.03;9.70;;;;;;;11.88;77.12;98296.44;1765143;81;21080;-77
2021/06/16 00:04:43;;;;;;;17.00;8.90;;;;;;;11.83;77.80;98296.45;1779365;80;21285;-77
2021/06/16 00:07:09;;;;;;;14.75;8.85;;;;;;;11.82;77.81;98298.37;1765084;81;20915;-77
2021/06/16 00:09:36;;;;;;;12.68;8.45;;;;;;;11.79;77.16;98294.84;1779489;80;20869;-77
2021/06/16 00:12:02;;;;;;;14.75;9.03;;;;;;;11.71;79.14;98291.35;1765190;81;20968;-77
2021/06/16 00:14:28;;;;;;;14.98;8.48;;;;;;;11.74;76.90;98288.06;1779467;80;21863;-77
2021/06/16 00:16:54;;;;;;;12.88;8.10;;;;;;;11.58;78.43;98291.41;1765250;81;20896;-77
2021/06/16 00:19:20;;;;;;;17.70;10.03;;;;;;;11.46;79.28;98280.63;1779427;80;21014;-77
2021/06/16 00:21:46;;;;;;;12.93;8.40;;;;;;;11.52;78.99;98288.44;1765307;81;20909;-77
2021/06/16 00:24:14;;;;;;;14.07;8.63;;;;;;;11.52;80.17;98285.73;1765353;81;21440;-77
2021/06/16 00:26:42;;;;;;;17.98;9.40;;;;;;;11.53;80.08;98283.28;1765313;81;21133;-77
2021/06/16 00:29:08;;;;;;;17.30;11.17;;;;;;;11.50;79.32;98284.39;1765506;81;21018;-77
2021/06/16 00:31:35;;;;;;;15.05;9.73;;;;;;;11.47;78.51;98290.39;1755265;80;20953;-77
2021/06/16 00:34:01;;;;;;;17.45;10.28;;;;;;;11.36;79.05;98292.31;1765336;80;21391;-77
2021/06/16 00:36:27;;;;;;;20.25;10.30;;;;;;;11.23;80.13;98291.02;1779433;80;21358;-77
2021/06/16 00:38:53;;;;;;;16.90;8.93;;;;;;;11.23;80.13;98291.02;1765384;81;22022;-77
2021/06/16 00:41:19;;;;;;;17.62;9.70;;;;;;;11.23;78.85;98288.86;1764789;80;20979;-77
2021/06/16 00:43:44;;;;;;;17.35;9.15;;;;;;;11.16;78.13;98290.50;1765255;81;20922;-77
2021/06/16 00:46:11;;;;;;;17.20;8.68;;;;;;;11.07;79.12;98291.34;1765382;81;20829;-77
2021/06/16 00:48:37;;;;;;;16.52;10.13;;;;;;;10.94;79.00;98281.91;1739630;81;20929;-77
2021/06/16 00:51:03;;;;;;;17.35;9.35;;;;;;;10.94;79.00;98281.91;1780606;80;21982;-77
2021/06/16 00:53:29;;;;;;;13.75;8.68;;;;;;;10.96;79.31;98285.15;1773055;80;21060;-77
2021/06/16 00:55:55;;;;;;;16.82;9.25;;;;;;;10.90;79.63;98284.34;1787869;80;21386;-77
2021/06/16 00:58:21;;;;;;;14.53;8.90;;;;;;;10.89;78.83;98283.27;1787866;80;20882;-77
2021/06/16 01:01:07;;;;;;;12.55;8.70;;;;;;;10.90;78.98;98286.24;1765143;81;20838;-77
2021/06/16 01:03:58;;;;;;;15.43;7.62;;;;;;;10.91;79.18;98288.67;1759370;80;21146;-76
2021/06/16 01:06:36;;;;;;;11.97;7.33;;;;;;;10.93;78.35;98285.69;1787728;80;21314;-77
2021/06/16 01:09:12;;;;;;;11.65;8.90;;;;;;;10.92;78.02;98284.06;1788038;80;21016;-76
2021/06/16 01:11:56;;;;;;;17.42;9.43;;;;;;;10.88;79.17;98282.45;1759984;80;21012;-76
2021/06/16 01:14:29;;;;;;;12.03;7.17;;;;;;;10.90;78.71;98285.70;1784920;80;21374;-77
2021/06/16 01:16:56;;;;;;;13.40;8.60;;;;;;;10.89;78.71;98284.63;1771849;80;21136;-76
2021/06/16 01:20:00;;;;;;;14.98;8.30;;;;;;;10.82;79.58;98284.90;1787609;80;21381;-76
2021/06/16 01:22:48;;;;;;;14.83;8.30;;;;;;;10.81;78.05;98281.92;1787699;80;21374;-77
2021/06/16 01:25:49;;;;;;;14.65;7.55;;;;;;;10.79;79.90;98283.30;1758793;81;21389;-78
2021/06/16 01:28:17;;;;;;;10.32;6.92;;;;;;;10.78;79.90;98283.03;1788003;80;20949;-77
2021/06/16 01:30:43;;;;;;;9.10;6.35;;;;;;;10.76;79.60;98281.92;1787790;80;21151;-77
2021/06/16 01:33:11;;;;;;;10.80;6.90;;;;;;;10.71;81.44;98279.24;1787767;80;21210;-77
2021/06/16 01:35:40;;;;;;;10.58;7.17;;;;;;;10.78;79.21;98282.48;1788543;80;21044;-77
2021/06/16 01:38:06;;;;;;;9.85;7.28;;;;;;;10.74;80.04;98285.46;1787644;79;21441;-77
2021/06/16 01:40:32;;;;;;;13.43;8.83;;;;;;;10.74;80.25;98285.46;1787825;80;21025;-77
2021/06/16 01:42:58;;;;;;;9.95;6.87;;;;;;;10.76;78.82;98284.63;1764868;80;21307;-77
2021/06/16 01:45:25;;;;;;;10.90;7.40;;;;;;;10.71;81.00;98282.77;1787933;80;21460;-77
2021/06/16 01:47:51;;;;;;;11.78;7.12;;;;;;;10.70;80.57;98279.79;1787593;80;20965;-77
2021/06/16 01:50:20;;;;;;;12.03;7.22;;;;;;;10.71;79.94;98285.47;1788582;79;21083;-77
2021/06/16 01:52:49;;;;;;;10.93;6.42;;;;;;;10.72;81.36;98280.86;1767999;81;20950;-76
2021/06/16 01:55:15;;;;;;;9.20;5.90;;;;;;;10.75;80.29;98281.66;1799216;79;21199;-76
2021/06/16 01:57:41;;;;;;;10.23;6.83;;;;;;;10.76;78.95;98285.98;1767823;81;20949;-76
2021/06/16 02:00:09;;;;;;;8.43;6.67;;;;;;;10.72;79.12;98276.25;1799117;79;20952;-76
2021/06/16 02:02:41;;;;;;;13.32;8.73;;;;;;;10.69;78.95;98274.10;1767873;81;20969;-76
2021/06/16 02:05:08;;;;;;;12.30;6.50;;;;;;;10.67;80.89;98281.67;1799163;79;21315;-76
2021/06/16 02:07:42;;;;;;;10.93;7.35;;;;;;;10.72;81.17;98274.90;1767831;81;21143;-76
2021/06/16 02:10:09;;;;;;;10.82;7.10;;;;;;;10.76;80.09;98282.47;1798986;79;20902;-77
2021/06/16 02:12:38;;;;;;;14.75;8.38;;;;;;;10.76;80.09;98282.47;1767853;81;20965;-77
2021/06/16 02:15:11;;;;;;;10.93;6.95;;;;;;;10.74;79.53;98281.39;1799351;79;20948;-77
2021/06/16 02:17:38;;;;;;;11.45;7.97;;;;;;;10.68;79.81;98280.61;1767995;80;21041;-77
2021/06/16 02:20:05;;;;;;;12.05;8.78;;;;;;;10.60;80.19;98284.42;1799075;79;21128;-76
2021/06/16 02:22:31;;;;;;;9.90;6.47;;;;;;;10.56;80.09;98285.48;1767862;81;21366;-76
2021/06/16 02:24:57;;;;;;;9.73;7.15;;;;;;;10.54;80.26;98280.08;1799136;79;20829;-76
2021/06/16 02:27:23;;;;;;;9.95;6.80;;;;;;;10.52;79.56;98283.61;1767807;80;21025;-77
2021/06/16 02:29:49;;;;;;;10.13;7.17;;;;;;;10.48;80.87;98282.52;1799219;79;21027;-77
2021/06/16 02:32:15;;;;;;;11.30;6.80;;;;;;;10.50;79.29;98289.83;1768447;81;20892;-77
2021/06/16 02:34:41;;;;;;;12.00;7.53;;;;;;;10.40;81.12;98283.88;1799168;79;21535;-77
2021/06/16 02:37:10;;;;;;;9.80;6.45;;;;;;;10.49;80.79;98289.02;1768005;81;20841;-77
2021/06/16 02:39:44;;;;;;;7.90;6.33;;;;;;;10.57;79.30;98294.42;1772534;79;21339;-77
2021/06/16 02:42:11;;;;;;;12.28;7.85;;;;;;;10.48;80.83;98291.45;1778287;80;21028;-77
2021/06/16 02:44:45;;;;;;;12.40;6.72;;;;;;;10.48;80.83;98291.45;1799242;79;21134;-76
2021/06/16 02:47:11;;;;;;;12.75;6.92;;;;;;;10.59;80.57;98296.31;1752674;81;20957;-76
2021/06/16 02:49:43;;;;;;;11.30;6.55;;;;;;;10.52;80.92;98284.42;1799308;79;20956;-76
2021/06/16 02:52:12;;;;;;;13.48;7.75;;;;;;;10.43;81.57;98289.58;1766341;81;20970;-77
2021/06/16 02:54:38;;;;;;;15.15;7.22;;;;;;;10.45;80.72;98290.66;1765853;80;20952;-77
2021/06/16 02:57:05;;;;;;;10.32;7.47;;;;;;;10.43;81.43;98296.90;1797457;79;21174;-77
2021/06/16 02:59:31;;;;;;;10.45;6.62;;;;;;;10.39;81.43;98299.31;1765919;81;20957;-77
2021/06/16 03:01:57;;;;;;;13.25;7.60;;;;;;;10.38;81.51;98300.95;1797364;79;20895;-77
2021/06/16 03:04:23;;;;;;;10.32;6.85;;;;;;;10.37;81.79;98304.20;1765995;80;21349;-77
2021/06/16 03:06:52;;;;;;;10.45;7.47;;;;;;;10.38;81.60;98305.83;1797422;79;20862;-77
2021/06/16 03:09:19;;;;;;;;;;;;;;;10.41;81.53;98311.23;1755156;81;21230;-77
2021/06/16 03:11:45;;;;;;;9.58;6.10;;;;;;;10.41;81.26;98304.45;1797317;79;20418;-77
2021/06/16 03:14:11;;;;;;;11.70;6.60;;;;;;;10.43;80.29;98309.90;1765929;80;20949;-77
2021/06/16 03:16:37;;;;;;;12.53;7.35;;;;;;;10.41;80.73;98309.87;1797390;79;20910;-77
2021/06/16 03:19:04;;;;;;;12.40;7.12;;;;;;;10.35;82.18;98311.80;1766036;80;20913;-77
2021/06/16 03:21:30;;;;;;;18.15;7.47;;;;;;;10.39;82.60;98316.12;1783746;79;21453;-77
2021/06/16 03:23:56;;;;;;;12.47;8.10;;;;;;;10.48;82.23;98315.84;1752659;81;21314;-77
2021/06/16 03:26:24;;;;;;;9.30;7.00;;;;;;;10.59;81.47;98318.80;1797521;79;20997;-77
2021/06/16 03:28:50;;;;;;;11.18;6.72;;;;;;;10.68;81.02;98319.91;1766033;80;21534;-77
2021/06/16 03:31:16;;;;;;;9.75;7.83;;;;;;;10.67;80.80;98317.45;1797434;79;21469;-77
2021/06/16 03:33:42;;;;;;;9.48;6.42;;;;;;;10.74;80.67;98332.89;1765751;81;21000;-77
2021/06/16 03:36:08;;;;;;;10.75;7.70;;;;;;;10.74;80.67;98332.89;1783753;79;21039;-77
2021/06/16 03:38:38;;;;;;;9.88;6.92;;;;;;;10.86;80.17;98329.91;1765902;80;20906;-77
2021/06/16 03:41:03;;;;;;;;;;;;;;;10.95;80.22;98325.55;1799757;79;21403;-77
2021/06/16 03:43:29;;;;;;;10.63;7.45;;;;;;;11.06;80.21;98326.34;1778472;80;20170;-77
2021/06/16 03:45:55;;;;;;;10.95;7.33;;;;;;;11.16;79.40;98321.69;1764074;80;21135;-77
2021/06/16 03:48:21;;;;;;;13.62;7.95;;;;;;;11.28;78.91;98322.76;1765595;81;20904;-77
2021/06/16 03:50:48;;;;;;;19.45;8.33;;;;;;;11.38;78.59;98326.78;1726505;80;21087;-77
2021/06/16 03:53:14;;;;;;;11.38;7.28;;;;;;;11.49;78.56;98324.28;1787698;80;21049;-77
2021/06/16 03:55:42;;;;;;;10.60;7.75;;;;;;;11.65;78.34;98333.72;1765157;81;21114;-77
2021/06/16 03:58:10;;;;;;;10.53;7.27;;;;;;;11.65;78.34;98333.72;1787898;80;21397;-77
2021/06/16 04:00:40;;;;;;;8.10;6.85;;;;;;;11.82;77.66;98324.70;1759378;80;20950;-77
2021/06/16 04:03:14;;;;;;;9.88;6.08;;;;;;;11.97;77.56;98328.70;1786345;80;20902;-77
2021/06/16 04:05:40;;;;;;;10.80;6.70;;;;;;;12.02;77.10;98329.20;1765126;80;20985;-76
2021/06/16 04:08:07;;;;;;;11.40;6.58;;;;;;;12.17;76.86;98325.03;1787789;80;20937;-76
2021/06/16 04:10:33;;;;;;;8.33;6.17;;;;;;;12.29;76.43;98330.09;1787857;80;22005;-76
2021/06/16 04:13:01;;;;;;;8.55;7.03;;;;;;;12.37;76.10;98323.50;1764862;80;21036;-76
2021/06/16 04:15:27;;;;;;;11.30;7.80;;;;;;;12.47;75.90;98326.69;1787852;80;20973;-76
2021/06/16 04:17:58;;;;;;;8.73;6.90;;;;;;;12.55;75.95;98325.27;1787834;80;20918;-76
2021/06/16 04:20:24;;;;;;;9.73;7.45;;;;;;;12.61;75.59;98330.93;1787829;80;20970;-77
2021/06/16 04:22:50;;;;;;;10.50;7.25;;;;;;;12.66;75.90;98326.82;1758941;80;21119;-77
2021/06/16 04:25:16;;;;;;;10.72;5.97;;;;;;;12.79;75.78;98327.50;1765121;80;21084;-76
2021/06/16 04:27:42;;;;;;;10.65;8.15;;;;;;;12.98;74.92;98328.94;1787891;80;20961;-76
2021/06/16 04:30:11;;;;;;;8.83;6.28;;;;;;;13.08;75.00;98331.58;1787673;80;21339;-76
2021/06/16 04:32:38;;;;;;;8.45;5.58;;;;;;;13.20;74.81;98336.09;1784936;80;20918;-76
2021/06/16 04:35:06;;;;;;;7.97;6.05;;;;;;;13.35;74.00;98331.59;1787705;80;21830;-76
2021/06/16 04:37:33;;;;;;;14.58;7.30;;;;;;;13.49;74.19;98333.84;1787795;80;20961;-76
2021/06/16 04:39:59;;;;;;;13.03;7.12;;;;;;;13.66;73.87;98330.09;1787700;79;21056;-76
2021/06/16 04:42:25;;;;;;;10.72;8.23;;;;;;;13.90;73.04;98334.70;1787726;80;21394;-76
2021/06/16 04:44:50;;;;;;;13.15;7.50;;;;;;;13.93;73.05;98328.65;1784756;80;21437;-76
2021/06/16 04:47:17;;;;;;;8.83;6.35;;;;;;;14.13;72.93;98330.30;1784762;80;21542;-76
2021/06/16 04:49:44;;;;;;;7.85;6.80;;;;;;;14.32;72.25;98327.80;1758754;80;20957;-76
2021/06/16 04:52:11;;;;;;;15.55;7.30;;;;;;;14.49;71.49;98330.58;1764981;81;21287;-77
2021/06/16 04:54:37;;;;;;;12.40;7.55;;;;;;;14.60;71.32;98324.64;1787570;80;21373;-77
2021/06/16 04:57:05;;;;;;;11.50;7.53;;;;;;;14.75;70.67;98325.51;1787783;80;21024;-77
2021/06/16 04:59:32;;;;;;;13.60;8.40;;;;;;;14.88;70.69;98328.83;1764885;80;21776;-77
2021/06/16 05:01:59;;;;;;;11.18;7.25;;;;;;;15.12;69.74;98324.55;1787826;80;21017;-77
2021/06/16 05:04:29;;;;;;;12.53;8.15;;;;;;;15.20;68.32;98321.93;1784855;79;20918;-77
2021/06/16 05:06:55;;;;;;;13.80;8.70;;;;;;;15.16;69.01;98317.39;1787830;80;20965;-76
2021/06/16 05:09:22;;;;;;;14.07;8.00;;;;;;;15.35;69.10;98314.56;1787626;79;20975;-76
2021/06/16 05:11:47;;;;;;;10.82;7.50;;;;;;;15.45;68.45;98317.09;1765155;81;21113;-76
2021/06/16 05:14:14;;;;;;;11.88;7.45;;;;;;;15.71;66.97;98326.40;1787459;80;20877;-76
2021/06/16 05:16:40;;;;;;;10.93;7.20;;;;;;;15.73;66.92;98324.19;1765271;81;21016;-76
2021/06/16 05:19:12;;;;;;;10.90;8.30;;;;;;;15.82;66.64;98326.20;1787671;80;20905;-76
2021/06/16 05:21:34;;;;;;;11.12;7.10;;;;;;;15.95;66.59;98326.16;1787223;80;21020;-77
2021/06/16 05:24:00;;;;;;;9.70;6.92;;;;;;;16.02;66.29;98322.45;1787638;80;22031;-77
2021/06/16 05:26:26;;;;;;;14.25;8.55;;;;;;;16.26;66.55;98324.92;1784859;80;21449;-77
2021/06/16 05:28:52;;;;;;;10.65;6.20;;;;;;;16.45;66.04;98320.64;1787626;80;21001;-77
2021/06/16 05:31:18;;;;;;;12.82;6.65;;;;;;;16.64;65.38;98323.17;1788088;80;21016;-77
2021/06/16 05:33:44;;;;;;;9.53;6.40;;;;;;;16.74;64.90;98322.95;1765070;80;20810;-77
2021/06/16 05:36:10;;;;;;;18.82;7.00;;;;;;;16.89;64.33;98321.75;1788047;80;21748;-77
2021/06/16 05:38:36;;;;;;;11.70;7.97;;;;;;;16.98;64.22;98317.13;1787621;79;20922;-77
2021/06/16 05:41:03;;;;;;;9.93;6.95;;;;;;;17.08;63.78;98317.42;1787921;80;20997;-77
2021/06/16 05:43:30;;;;;;;23.50;14.00;;;;;;;17.24;63.43;98319.19;1758984;80;21067;-77
2021/06/16 05:45:56;;;;;;;12.03;7.12;;;;;;;17.37;63.21;98314.98;1787839;79;21024;-77
2021/06/16 05:48:22;;;;;;;13.08;6.58;;;;;;;17.55;62.43;98317.78;1787571;80;20984;-77
2021/06/16 05:50:48;;;;;;;12.43;7.67;;;;;;;17.64;62.17;98315.30;1788411;80;21272;-76
2021/06/16 05:53:14;;;;;;;13.88;7.37;;;;;;;17.72;61.55;98315.11;1796428;79;20983;-76
2021/06/16 05:55:40;;;;;;;11.68;6.17;;;;;;;17.73;61.90;98313.98;1768005;81;20885;-76
2021/06/16 05:58:06;;;;;;;11.60;6.83;;;;;;;17.90;61.57;98316.76;1799359;79;21440;-76
2021/06/16 06:00:32;;;;;;;13.68;8.40;;;;;;;18.05;61.59;98311.38;1768030;81;21243;-77
2021/06/16 06:02:58;;;;;;;8.53;6.28;;;;;;;18.22;61.19;98314.70;1799120;79;20861;-77
2021/06/16 06:05:25;;;;;;;10.38;6.35;;;;;;;18.30;60.05;98309.21;1768104;81;21445;-77
2021/06/16 06:07:51;;;;;;;9.93;6.85;;;;;;;18.32;60.26;98312.44;1799210;79;20897;-77
2021/06/16 06:10:16;;;;;;;11.12;7.17;;;;;;;18.46;60.10;98313.64;1778470;80;20960;-76
2021/06/16 06:12:43;;;;;;;14.30;7.28;;;;;;;18.58;60.94;98319.27;1772412;79;21141;-77
2021/06/16 06:15:12;;;;;;;8.80;5.50;;;;;;;18.91;60.77;98318.77;1767730;80;21063;-77
2021/06/16 06:17:37;;;;;;;9.90;6.03;;;;;;;19.18;59.55;98306.56;1799139;79;20905;-77
2021/06/16 06:20:04;;;;;;;11.53;5.75;;;;;;;19.33;58.71;98308.77;1767940;80;20806;-77
2021/06/16 06:22:30;;;;;;;10.40;5.92;;;;;;;19.50;57.89;98313.95;1799449;79;21424;-77
2021/06/16 06:24:56;;;;;;;13.85;5.83;;;;;;;19.59;57.50;98314.16;1767967;80;22010;-76
2021/06/16 06:27:22;;;;;;;7.75;5.83;;;;;;;19.73;56.64;98312.53;1799469;79;20869;-77
2021/06/16 06:29:48;;;;;;;10.38;5.42;;;;;;;19.78;55.83;98310.98;1767943;80;20953;-77
2021/06/16 06:32:14;;;;;;;8.48;5.55;;;;;;;19.75;55.08;98317.16;1799946;79;21071;-77
2021/06/16 06:34:40;;;;;;;6.28;5.08;;;;;;;19.81;54.92;98306.75;1778373;80;20960;-76
2021/06/16 06:37:06;;;;;;;11.05;5.87;;;;;;;19.82;55.28;98304.23;1798742;79;21788;-77
2021/06/16 06:39:32;;;;;;;7.55;5.20;;;;;;;20.02;55.94;98310.92;1767701;80;21565;-76
2021/06/16 06:41:58;;;;;;;13.32;5.47;;;;;;;20.28;56.28;98308.20;1798669;79;20964;-77
2021/06/16 06:44:24;;;;;;;8.10;6.20;;;;;;;20.60;56.04;98307.80;1768008;80;20917;-77
2021/06/16 06:46:50;;;;;;;19.32;7.12;;;;;;;20.97;55.77;98307.33;1799508;79;21035;-76
2021/06/16 06:49:15;;;;;;;15.65;6.72;;;;;;;21.28;55.46;98304.09;1767929;80;21813;-76
2021/06/16 06:51:41;;;;;;;8.65;5.20;;;;;;;21.58;55.43;98306.84;1799312;79;20896;-77
2021/06/16 06:54:12;;;;;;;8.15;5.22;;;;;;;21.85;54.41;98303.15;1767996;80;20881;-77
2021/06/16 06:56:37;;;;;;;6.15;4.90;;;;;;;22.04;53.71;98303.91;1798209;79;20942;-77
2021/06/16 06:59:03;;;;;;;8.08;4.75;;;;;;;22.13;51.83;98304.06;1799144;79;21035;-77
2021/06/16 07:01:29;;;;;;;8.95;5.35;;;;;;;22.16;52.51;98299.22;1778290;80;21178;-77
2021/06/16 07:03:55;;;;;;;8.73;5.00;;;;;;;22.32;52.06;98302.63;1799053;79;20929;-77
2021/06/16 07:06:21;;;;;;;9.58;5.90;;;;;;;22.45;52.32;98300.84;1767996;81;20991;-77
2021/06/16 07:08:47;;;;;;;7.15;5.83;;;;;;;22.60;53.10;98292.39;1799155;79;21341;-77
2021/06/16 07:11:13;;;;;;;9.70;4.67;;;;;;;22.83;49.91;98298.16;1768066;81;20968;-77
2021/06/16 07:13:39;;;;;;;9.25;5.22;;;;;;;23.02;49.69;98298.30;1799118;79;21165;-77
2021/06/16 07:16:06;;;;;;;6.45;4.78;;;;;;;23.03;48.98;98299.09;1768176;80;21012;-77
2021/06/16 07:18:32;;;;;;;9.48;4.65;;;;;;;23.22;48.92;98291.48;1799451;79;20964;-77
2021/06/16 07:20:58;;;;;;;7.80;4.40;;;;;;;23.46;47.42;98291.88;1768253;81;20858;-77
2021/06/16 07:23:24;;;;;;;9.33;4.55;;;;;;;23.72;46.91;98289.38;1799374;79;20913;-77
2021/06/16 07:25:50;;;;;;;8.20;4.15;;;;;;;23.72;45.94;98285.81;1768300;80;21331;-77
2021/06/16 07:28:15;;;;;;;6.67;4.20;;;;;;;23.84;46.68;98282.36;1799296;79;20889;-77
2021/06/16 07:30:41;;;;;;;6.65;4.62;;;;;;;24.20;46.25;98281.75;1752833;81;20885;-77
2021/06/16 07:33:10;;;;;;;11.03;4.97;;;;;;;24.40;43.36;98275.08;1799784;79;20908;-77
2021/06/16 07:35:37;;;;;;;;;;;;;;;24.59;44.85;98275.64;1770766;81;20961;-77
2021/06/16 07:38:03;;;;;;;11.08;4.50;;;;;;;24.89;43.02;98275.83;1799423;79;21004;-77
2021/06/16 07:40:29;;;;;;;29.87;6.05;;;;;;;25.19;41.49;98268.25;1768190;80;21083;-77
2021/06/16 07:42:55;;;;;;;9.18;3.83;;;;;;;25.96;39.28;98273.44;1799490;79;20884;-77
2021/06/16 07:45:21;;;;;;;13.08;4.95;;;;;;;26.18;40.28;98272.36;1768146;81;20900;-77
2021/06/16 07:47:47;;;;;;;20.70;5.78;;;;;;;26.84;40.44;98270.79;1798771;79;20854;-77
2021/06/16 07:50:13;;;;;;;16.80;5.33;;;;;;;27.58;38.42;98269.27;1768018;80;21259;-77
2021/06/16 07:52:39;;;;;;;7.55;3.75;;;;;;;27.93;35.75;98268.73;1796154;79;21028;-77
2021/06/16 07:55:06;;;;;;;5.37;3.90;;;;;;;28.17;33.90;98272.86;1788088;80;20922;-77
2021/06/16 07:57:32;;;;;;;8.78;4.55;;;;;;;27.91;33.02;98273.91;1788459;80;20997;-77
2021/06/16 07:59:58;;;;;;;15.13;5.00;;;;;;;28.06;34.29;98281.16;1788253;80;21569;-77
2021/06/16 08:02:26;;;;;;;9.93;3.75;;;;;;;28.68;34.78;98272.49;1788127;80;21197;-77
2021/06/16 08:04:53;;;;;;;12.75;4.10;;;;;;;29.18;33.29;98272.02;1788331;80;20965;-78
2021/06/16 08:07:20;;;;;;;16.10;5.35;;;;;;;29.26;31.93;98277.81;1789124;80;21067;-77
2021/06/16 08:09:46;;;;;;;5.53;3.98;;;;;;;29.47;30.91;98275.61;1765097;80;20908;-77
2021/06/16 08:12:13;;;;;;;9.50;3.83;;;;;;;29.56;29.87;98282.22;1755683;80;20862;-77
2021/06/16 08:14:40;;;;;;;9.45;4.08;;;;;;;29.20;30.65;98280.19;1765356;80;21641;-77
2021/06/16 08:17:07;;;;;;;8.23;4.25;;;;;;;29.06;32.30;98282.98;1779503;80;20974;-77
2021/06/16 08:19:33;;;;;;;15.68;4.85;;;;;;;29.43;31.81;98282.59;1765169;80;20952;-77
2021/06/16 08:21:59;;;;;;;8.40;4.10;;;;;;;30.13;32.65;98284.95;1779626;80;21017;-77
2021/06/16 08:24:26;;;;;;;7.37;3.52;;;;;;;30.34;30.67;98277.91;1765158;80;20825;-77
2021/06/16 08:26:52;;;;;;;10.18;4.15;;;;;;;30.38;30.90;98281.48;1779564;80;21074;-77
2021/06/16 08:29:18;;;;;;;9.68;4.05;;;;;;;30.33;30.39;98283.28;1765367;80;20935;-77
2021/06/16 08:31:44;;;;;;;8.95;4.75;;;;;;;30.29;31.18;98279.72;1755389;80;21092;-77
2021/06/16 08:34:10;;;;;;;6.10;2.90;;;;;;;30.99;31.64;98283.39;1765283;80;20884;-77
2021/06/16 08:36:36;;;;;;;7.65;3.05;;;;;;;30.38;27.01;98287.67;1781243;80;21639;-77
2021/06/16 08:39:05;;;;;;;5.92;3.80;;;;;;;30.76;27.39;98288.72;1739767;81;21169;-77
2021/06/16 08:41:31;;;;;;;11.22;4.35;;;;;;;31.37;28.30;98287.16;1779609;80;20982;-77
2021/06/16 08:43:57;;;;;;;5.22;3.22;;;;;;;31.65;27.49;98288.13;1765276;80;20919;-77
2021/06/16 08:46:23;;;;;;;6.95;3.50;;;;;;;31.21;24.90;98291.08;1779596;80;20859;-77
2021/06/16 08:48:49;;;;;;;10.93;3.70;;;;;;;30.42;25.80;98297.62;1765815;80;21015;-77
2021/06/16 08:51:16;;;;;;;9.53;4.17;;;;;;;31.79;26.33;98294.22;1779557;80;21850;-77
2021/06/16 08:53:44;;;;;;;5.15;3.60;;;;;;;31.90;25.91;98286.52;1744727;81;20966;-77
2021/06/16 08:56:11;;;;;;;6.85;3.67;;;;;;;31.33;25.95;98291.18;1764767;80;21397;-77
2021/06/16 08:58:38;;;;;;;8.93;4.12;;;;;;;32.16;25.53;98294.86;1796817;79;20910;-78
2021/06/16 09:01:05;;;;;;;4.67;3.20;;;;;;;32.09;25.03;98295.72;1765626;80;20981;-78
2021/06/16 09:03:32;;;;;;;6.00;3.10;;;;;;;32.70;25.71;98284.59;1796765;79;21174;-78
2021/06/16 09:06:09;;;;;;;6.03;3.52;;;;;;;32.96;25.65;98290.69;1765395;81;21249;-78
2021/06/16 09:09:00;;;;;;;4.67;2.85;;;;;;;33.81;24.46;98287.94;1807598;79;20946;-79
2021/06/16 09:11:29;;;;;;;7.00;3.50;;;;;;;34.01;24.07;98289.40;1765424;80;21421;-78
2021/06/16 09:14:20;;;;;;;8.58;4.00;;;;;;;34.85;22.02;98284.52;1807834;79;20941;-77
2021/06/16 09:16:47;;;;;;;5.85;4.25;;;;;;;34.32;23.83;98291.42;1764809;80;21312;-78
2021/06/16 09:19:33;;;;;;;8.50;3.52;;;;;;;34.20;23.08;98287.25;1796837;79;20965;-77
2021/06/16 09:22:07;;;;;;;7.92;3.52;;;;;;;31.95;23.54;98298.05;1765618;80;21385;-76
2021/06/16 09:24:43;;;;;;;5.45;3.25;;;;;;;33.48;23.80;98290.32;1796575;79;21521;-77
2021/06/16 09:27:09;;;;;;;5.92;3.65;;;;;;;34.73;21.67;98299.44;1765180;80;21444;-77
2021/06/16 09:29:35;;;;;;;5.05;3.25;;;;;;;34.15;23.26;98291.16;1796515;79;21094;-77
2021/06/16 09:32:03;;;;;;;6.95;3.30;;;;;;;34.09;23.29;98286.64;1765994;81;20885;-77
2021/06/16 09:34:29;;;;;;;6.60;3.37;;;;;;;35.09;21.72;98287.41;1796649;79;21052;-77
2021/06/16 09:36:57;;;;;;;6.92;3.10;;;;;;;35.39;22.36;98286.34;1775913;80;20866;-77
2021/06/16 09:39:25;;;;;;;6.08;3.30;;;;;;;33.96;20.98;98296.94;1785497;80;20914;-77
2021/06/16 09:42:12;;;;;;;3.92;2.92;;;;;;;34.93;21.29;98300.05;1765381;81;21033;-77
2021/06/16 09:44:39;;;;;;;5.72;3.15;;;;;;;35.24;20.98;98288.67;1795997;79;21537;-77
2021/06/16 09:47:22;;;;;;;6.30;3.35;;;;;;;35.16;20.42;98289.27;1765331;80;20973;-78
2021/06/16 09:49:55;;;;;;;7.70;4.60;;;;;;;36.26;20.71;98289.94;1796521;79;20922;-77
2021/06/16 09:52:37;;;;;;;3.25;2.95;;;;;;;36.04;20.70;98289.72;1765233;81;21024;-77
2021/06/16 09:55:14;;;;;;;5.78;3.47;;;;;;;37.44;17.87;98278.13;1796243;79;21320;-77
2021/06/16 09:58:03;;;;;;;4.08;3.33;;;;;;;36.79;19.63;98284.78;1772394;80;21465;-78
2021/06/16 10:00:44;;;;;;;4.72;3.35;;;;;;;35.93;20.13;98291.42;1765400;80;20981;-77
2021/06/16 10:03:21;;;;;;;4.65;3.05;;;;;;;35.64;20.11;98293.35;1793772;80;20957;-76
2021/06/16 10:06:11;;;;;;;4.92;3.17;;;;;;;34.91;20.49;98287.03;1784614;80;25300;-77
2021/06/16 10:08:46;;;;;;;10.82;8.35;;;;;;;35.49;19.32;98276.03;1765202;80;21351;-77
2021/06/16 10:11:16;;;;;;;12.20;7.08;;;;;;;36.05;20.02;98289.27;1764621;80;20996;-77
2021/06/16 10:13:43;;;;;;;8.35;6.28;;;;;;;36.71;19.66;98282.80;1765348;80;21401;-77
2021/06/16 10:16:09;;;;;;;4.97;3.70;;;;;;;37.71;18.71;98275.42;1796899;79;21044;-77
2021/06/16 10:18:44;;;;;;;7.53;3.70;;;;;;;37.60;18.80;98277.17;1765406;81;20958;-77
2021/06/16 10:21:13;;;;;;;6.60;3.50;;;;;;;37.80;18.45;98274.12;1796828;79;21994;-77
2021/06/16 10:23:39;;;;;;;5.17;3.22;;;;;;;37.36;18.77;98273.17;1750063;81;21057;-77
2021/06/16 10:26:13;;;;;;;6.58;3.02;;;;;;;37.33;18.34;98274.84;1781179;80;20917;-77
2021/06/16 10:28:42;;;;;;;4.42;2.85;;;;;;;37.09;18.91;98276.41;1761231;80;21457;-77
2021/06/16 10:31:08;;;;;;;4.90;2.85;;;;;;;37.50;18.47;98271.27;1796824;79;21024;-77
2021/06/16 10:33:40;;;;;;;4.70;3.50;;;;;;;36.93;18.57;98278.74;1765018;80;21818;-77
2021/06/16 10:36:18;;;;;;;6.47;3.17;;;;;;;35.69;19.67;98281.56;1796708;80;20993;-77
2021/06/16 10:39:02;;;;;;;5.92;3.77;;;;;;;37.24;19.12;98271.89;1765194;80;20969;-77
2021/06/16 10:41:54;;;;;;;5.58;3.10;;;;;;;38.66;17.98;98268.98;1789037;79;20903;-76
2021/06/16 10:44:28;;;;;;;6.22;2.92;;;;;;;37.52;18.31;98282.93;1765308;80;21040;-78
2021/06/16 10:47:00;;;;;;;5.65;3.10;;;;;;;36.98;19.17;98269.07;1796345;79;21056;-77
2021/06/16 10:49:50;;;;;;;5.05;2.90;;;;;;;36.53;18.93;98269.22;1765056;81;21316;-77
2021/06/16 10:52:17;;;;;;;6.87;3.52;;;;;;;36.38;19.17;98275.09;1796974;79;20945;-77
2021/06/16 10:55:00;;;;;;;4.72;3.27;;;;;;;35.86;19.77;98269.02;1765569;80;21370;-78
2021/06/16 10:57:27;;;;;;;4.87;2.90;;;;;;;34.91;20.77;98263.90;1797816;79;20957;-76
2021/06/16 11:00:07;;;;;;;7.70;3.12;;;;;;;33.64;22.41;98264.55;1765887;80;21885;-76
2021/06/16 11:02:44;;;;;;;8.23;4.80;;;;;;;35.50;20.94;98267.14;1797479;79;21029;-77
2021/06/16 11:05:31;;;;;;;4.67;2.72;;;;;;;35.63;20.00;98267.82;1765789;81;20966;-77
2021/06/16 11:07:59;;;;;;;7.42;3.35;;;;;;;36.87;18.77;98266.42;1797689;79;20985;-77
2021/06/16 11:10:51;;;;;;;7.12;3.05;;;;;;;36.04;20.24;98267.16;1766064;80;20921;-77
2021/06/16 11:13:38;;;;;;;6.42;3.10;;;;;;;37.55;18.79;98266.47;1752043;81;21442;-77
2021/06/16 11:16:48;;;;;;;4.37;2.85;;;;;;;37.25;18.86;98264.38;1790794;79;20941;-76
2021/06/16 11:19:29;;;;;;;7.22;3.58;;;;;;;37.07;18.56;98262.75;1765895;80;21032;-76
2021/06/16 11:21:58;;;;;;;3.83;3.05;;;;;;;37.61;18.92;98253.34;1797885;79;20911;-77
2021/06/16 11:25:00;;;;;;;3.92;3.17;;;;;;;37.59;18.94;98243.09;1765794;80;20906;-77
2021/06/16 11:27:55;;;;;;;7.70;3.00;;;;;;;37.81;18.41;98256.70;1797600;79;21148;-77
2021/06/16 11:30:45;;;;;;;8.03;3.50;;;;;;;36.48;19.90;98258.47;1752496;81;20962;-77
2021/06/16 11:33:23;;;;;;;4.17;3.17;;;;;;;34.21;21.50;98252.89;1797258;79;21214;-77
2021/06/16 11:36:02;;;;;;;4.60;3.40;;;;;;;32.11;24.58;98251.25;1765858;81;21008;-77
2021/06/16 11:38:42;;;;;;;4.72;3.37;;;;;;;34.31;21.31;98256.71;1797700;79;21052;-76
2021/06/16 11:41:16;;;;;;;3.90;3.10;;;;;;;34.60;21.01;98249.89;1764641;80;21374;-76